createdAt,value
2023-03-03T00:04:31.684Z,0.01
2023-03-03T00:09:34.829Z,0.03
2023-03-03T00:14:38.016Z,0.07
2023-03-03T00:19:42.331Z,0.06
2023-03-03T00:24:45.271Z,0.00
2023-03-03T00:29:55.632Z,-0.05
2023-03-03T00:35:26.263Z,-0.13
2023-03-03T00:40:40.666Z,-0.19
2023-03-03T00:45:53.217Z,-0.25
2023-03-03T00:51:01.580Z,-0.33
2023-03-03T00:56:04.892Z,-0.42
2023-03-03T01:01:08.098Z,-0.47
2023-03-03T01:06:12.612Z,-0.54
2023-03-03T01:11:25.958Z,-0.59
2023-03-03T01:16:29.289Z,-0.63
2023-03-03T01:21:32.373Z,-0.69
2023-03-03T01:26:35.459Z,-0.71
2023-03-03T01:31:38.727Z,-0.78
2023-03-03T01:36:41.772Z,-0.85
2023-03-03T01:41:44.660Z,-0.93
2023-03-03T01:47:13.252Z,-1.00
2023-03-03T01:52:47.231Z,-1.09
2023-03-03T01:58:01.344Z,-1.15
2023-03-03T02:03:05.881Z,-1.16
2023-03-03T02:08:12.523Z,-1.19
2023-03-03T02:13:15.635Z,-1.22
2023-03-03T02:18:21.065Z,-1.25
2023-03-03T02:23:46.450Z,-1.27
2023-03-03T02:28:50.484Z,-1.27
2023-03-03T02:33:55.505Z,-1.27
2023-03-03T02:39:13.800Z,-1.29
2023-03-03T02:44:20.676Z,-1.32
2023-03-03T02:49:34.240Z,-1.37
2023-03-03T02:54:38.031Z,-1.41
2023-03-03T02:59:40.966Z,-1.44
2023-03-03T03:04:43.867Z,-1.47
2023-03-03T03:09:46.679Z,-1.51
2023-03-03T03:14:49.893Z,-1.53
2023-03-03T03:19:52.863Z,-1.59
2023-03-03T03:24:55.980Z,-1.59
2023-03-03T03:29:58.894Z,-1.59
2023-03-03T03:35:02.278Z,-1.59
2023-03-03T03:40:06.259Z,-1.60
2023-03-03T03:45:09.956Z,-1.59
2023-03-03T03:50:13.314Z,-1.58
2023-03-03T03:55:16.444Z,-1.54
2023-03-03T04:00:19.754Z,-1.49
2023-03-03T04:05:23.249Z,-1.45
2023-03-03T04:10:26.384Z,-1.42
2023-03-03T04:15:30.348Z,-1.40
2023-03-03T04:20:33.450Z,-1.39
2023-03-03T04:25:36.923Z,-1.35
2023-03-03T04:30:40.531Z,-1.37
2023-03-03T04:35:43.481Z,-1.46
2023-03-03T04:40:46.559Z,-1.54
2023-03-03T04:45:49.555Z,-1.64
2023-03-03T04:50:52.689Z,-1.73
2023-03-03T04:55:55.728Z,-1.79
2023-03-03T05:00:59.103Z,-1.86
2023-03-03T05:06:02.111Z,-1.95
2023-03-03T05:11:05.398Z,-1.96
2023-03-03T05:16:09.073Z,-1.99
2023-03-03T05:21:12.660Z,-2.00
2023-03-03T05:26:15.664Z,-2.00
2023-03-03T05:31:18.727Z,-1.98
2023-03-03T05:36:22.320Z,-1.93
2023-03-03T05:41:25.463Z,-1.90
2023-03-03T05:46:28.798Z,-1.88
2023-03-03T05:51:31.989Z,-1.85
2023-03-03T05:56:35.132Z,-1.81
2023-03-03T06:01:39.165Z,-1.73
2023-03-03T06:06:42.246Z,-1.62
2023-03-03T06:11:45.312Z,-1.46
2023-03-03T06:16:48.881Z,-1.30
2023-03-03T06:21:51.844Z,-1.11
2023-03-03T06:26:55.820Z,-0.89
2023-03-03T06:31:58.922Z,-0.64
2023-03-03T06:37:02.258Z,-0.36
2023-03-03T06:42:05.386Z,-0.12
2023-03-03T06:47:08.640Z,0.18
2023-03-03T06:52:27.744Z,0.48
2023-03-03T06:57:34.464Z,0.76
2023-03-03T07:02:37.289Z,1.03
2023-03-03T07:07:40.169Z,1.29
2023-03-03T07:12:43.019Z,1.48
2023-03-03T07:17:51.204Z,1.64
2023-03-03T07:22:54.370Z,1.82
2023-03-03T07:28:12.327Z,2.04
2023-03-03T07:33:41.103Z,2.32
2023-03-03T07:39:01.166Z,2.65
2023-03-03T07:44:21.300Z,3.01
2023-03-03T07:49:37.437Z,3.30
2023-03-03T07:54:43.599Z,3.73
2023-03-03T08:00:02.453Z,4.46
2023-03-03T08:05:31.425Z,5.26
2023-03-03T08:10:53.246Z,6.23
2023-03-03T08:16:22.164Z,7.05
2023-03-03T08:21:26.748Z,7.38
2023-03-03T08:26:29.732Z,7.39
2023-03-03T08:31:41.377Z,7.50
2023-03-03T08:36:44.922Z,7.36
2023-03-03T08:41:47.976Z,7.66
2023-03-03T08:46:50.978Z,7.98
2023-03-03T08:51:54.657Z,8.69
2023-03-03T08:56:57.666Z,9.77
2023-03-03T09:02:00.724Z,10.72
2023-03-03T09:07:03.599Z,11.78
2023-03-03T09:12:22.612Z,12.70
2023-03-03T09:17:37.615Z,13.45
2023-03-03T09:22:40.734Z,14.00
2023-03-03T09:27:43.517Z,14.45
2023-03-03T09:32:46.241Z,14.66
2023-03-03T09:37:52.629Z,14.88
2023-03-03T09:43:26.371Z,14.89
2023-03-03T09:48:47.750Z,14.73
2023-03-03T09:54:18.297Z,14.05
2023-03-03T09:59:44.079Z,13.33
2023-03-03T10:05:15.293Z,12.30
2023-03-03T10:10:49.158Z,11.57
2023-03-03T10:16:19.372Z,11.19
2023-03-03T10:21:50.624Z,10.89
2023-03-03T10:27:12.368Z,11.04
2023-03-03T10:32:41.399Z,11.72
2023-03-03T10:38:15.372Z,12.28
2023-03-03T10:44:18.455Z,13.05
2023-03-03T10:50:21.507Z,14.06
2023-03-03T10:55:53.177Z,13.77
2023-03-03T11:01:31.024Z,13.30
2023-03-03T11:07:16.381Z,13.24
2023-03-03T11:12:35.173Z,13.37
2023-03-03T11:17:49.945Z,13.55
2023-03-03T11:23:07.291Z,13.65
2023-03-03T11:28:44.396Z,14.06
2023-03-03T11:33:53.155Z,14.03
2023-03-03T11:39:00.240Z,13.70
2023-03-03T11:44:06.096Z,13.37
2023-03-03T11:49:18.982Z,13.48
2023-03-03T11:54:56.391Z,14.23
2023-03-03T12:00:17.830Z,15.01
2023-03-03T12:06:05.278Z,14.89
2023-03-03T12:11:43.196Z,15.08
2023-03-03T12:17:15.737Z,15.37
2023-03-03T12:22:33.597Z,15.29
2023-03-03T12:28:05.644Z,15.21
2023-03-03T12:33:31.077Z,14.98
2023-03-03T12:39:25.326Z,14.77
2023-03-03T12:45:11.387Z,14.44
2023-03-03T12:50:48.018Z,14.03
2023-03-03T12:56:00.453Z,14.06
2023-03-03T13:01:36.822Z,13.87
2023-03-03T13:07:25.246Z,13.64
2023-03-03T13:12:42.157Z,13.15
2023-03-03T13:17:54.246Z,12.98
2023-03-03T13:23:31.850Z,13.04
2023-03-03T13:28:58.491Z,12.97
2023-03-03T13:34:02.659Z,12.72
2023-03-03T13:39:22.637Z,12.57
2023-03-03T13:44:39.047Z,12.44
2023-03-03T13:50:07.940Z,12.34
2023-03-03T13:55:44.672Z,12.19
2023-03-03T14:01:02.501Z,12.03
2023-03-03T14:06:15.252Z,11.90
2023-03-03T14:12:20.187Z,11.72
2023-03-03T14:17:58.165Z,11.58
2023-03-03T14:23:33.897Z,11.42
2023-03-03T14:29:35.612Z,11.08
2023-03-03T14:34:41.543Z,10.93
2023-03-03T14:39:49.002Z,10.84
2023-03-03T14:44:56.416Z,10.82
2023-03-03T14:50:03.582Z,10.79
2023-03-03T14:55:38.827Z,10.64
2023-03-03T15:00:41.789Z,10.54
2023-03-03T15:05:57.879Z,10.44
2023-03-03T15:11:17.418Z,10.40
2023-03-03T15:16:31.947Z,10.38
2023-03-03T15:21:40.662Z,10.30
2023-03-03T15:27:00.339Z,10.20
2023-03-03T15:32:44.765Z,10.12
2023-03-03T15:38:22.505Z,10.00
2023-03-03T15:43:35.188Z,9.86
2023-03-03T15:48:57.151Z,9.69
2023-03-03T15:54:25.379Z,9.48
2023-03-03T15:59:51.133Z,9.20
2023-03-03T16:05:22.704Z,8.97
2023-03-03T16:11:06.762Z,8.70
2023-03-03T16:16:37.067Z,8.45
2023-03-03T16:22:24.669Z,8.17
2023-03-03T16:28:08.765Z,7.86
2023-03-03T16:33:44.035Z,7.64
2023-03-03T16:39:31.987Z,7.45
2023-03-03T16:44:43.237Z,7.28
2023-03-03T16:49:59.460Z,7.13
2023-03-03T16:55:32.636Z,6.92
2023-03-03T17:01:08.839Z,6.63
2023-03-03T17:06:48.365Z,6.48
2023-03-03T17:12:26.907Z,6.24
2023-03-03T17:17:54.358Z,5.96
2023-03-03T17:23:43.233Z,5.65
2023-03-03T17:29:18.521Z,5.32
2023-03-03T17:35:20.311Z,5.00
2023-03-03T17:41:07.516Z,4.69
2023-03-03T17:46:31.388Z,4.40
2023-03-03T17:57:59.348Z,4.08
2023-03-03T18:03:15.787Z,4.09
2023-03-03T18:08:47.064Z,4.26
2023-03-03T18:14:15.967Z,4.45
2023-03-03T18:19:50.495Z,4.67
2023-03-03T18:24:55.192Z,4.95
2023-03-03T18:30:51.956Z,5.21
2023-03-03T18:36:36.590Z,5.43
2023-03-03T18:42:15.660Z,5.59
2023-03-03T18:47:21.330Z,5.63
2023-03-03T18:52:31.821Z,5.73
2023-03-03T18:57:35.827Z,5.80
2023-03-03T19:02:49.691Z,5.76
2023-03-03T19:08:18.760Z,5.74
2023-03-03T19:13:33.725Z,5.78
2023-03-03T19:18:42.584Z,5.79
2023-03-03T19:23:59.955Z,5.68
2023-03-03T19:29:27.871Z,5.52
2023-03-03T19:35:01.744Z,5.37
2023-03-03T19:41:09.738Z,5.22
2023-03-03T19:47:19.026Z,5.06
2023-03-03T19:53:06.136Z,4.82
2023-03-03T19:58:23.281Z,4.54
2023-03-03T20:03:54.703Z,4.33
2023-03-03T20:09:16.270Z,4.10
2023-03-03T20:15:02.329Z,3.80
2023-03-03T20:20:36.534Z,3.46
2023-03-03T20:26:14.808Z,3.17
2023-03-03T20:31:48.025Z,2.87
2023-03-03T20:37:10.399Z,2.66
2023-03-03T20:42:56.203Z,2.56
2023-03-03T20:48:40.858Z,2.44
2023-03-03T20:54:38.406Z,2.22
2023-03-03T21:00:22.741Z,2.09
2023-03-03T21:05:26.394Z,2.07
2023-03-03T21:10:36.128Z,2.20
2023-03-03T21:15:39.894Z,2.29
2023-03-03T21:20:42.626Z,2.37
2023-03-03T21:25:54.563Z,2.37
2023-03-03T21:31:18.025Z,2.33
2023-03-03T21:36:31.931Z,2.23
2023-03-03T21:42:14.499Z,2.09
2023-03-03T21:47:19.958Z,2.03
2023-03-03T21:52:23.040Z,2.00
2023-03-03T21:57:25.943Z,1.97
2023-03-03T22:02:29.109Z,1.91
2023-03-03T22:07:32.257Z,1.81
2023-03-03T22:12:35.316Z,1.66
2023-03-03T22:17:38.476Z,1.51
2023-03-03T22:22:42.244Z,1.32
2023-03-03T22:27:45.175Z,1.19
2023-03-03T22:32:52.320Z,1.08
2023-03-03T22:37:55.220Z,1.00
2023-03-03T22:42:59.186Z,0.89
2023-03-03T22:48:02.233Z,0.84
2023-03-03T22:53:08.058Z,0.83
2023-03-03T22:58:12.207Z,0.76
2023-03-03T23:03:16.261Z,0.65
2023-03-03T23:08:20.530Z,0.59
2023-03-03T23:13:25.198Z,0.73
2023-03-03T23:18:28.790Z,0.89
2023-03-03T23:23:32.364Z,1.14
2023-03-03T23:28:35.549Z,1.48
2023-03-03T23:33:38.575Z,1.64
2023-03-03T23:38:43.194Z,1.66
2023-03-03T23:43:46.373Z,1.59
2023-03-03T23:48:49.448Z,1.43
2023-03-03T23:53:52.481Z,1.38
2023-03-03T23:58:55.623Z,1.30
